createdAt,value
2023-03-11T00:01:01.370Z,1.83
2023-03-11T00:03:29.503Z,3.63
2023-03-11T00:06:02.670Z,2.50
2023-03-11T00:08:31.067Z,1.40
2023-03-11T00:11:01.571Z,1.60
2023-03-11T00:13:31.288Z,1.10
2023-03-11T00:16:01.334Z,1.30
2023-03-11T00:18:31.977Z,2.30
2023-03-11T00:21:01.694Z,2.20
2023-03-11T00:23:30.230Z,1.50
2023-03-11T00:26:03.177Z,2.37
2023-03-11T00:28:34.045Z,1.50
2023-03-11T00:31:04.041Z,2.57
2023-03-11T00:33:32.786Z,2.20
2023-03-11T00:36:02.320Z,2.10
2023-03-11T00:38:30.565Z,2.60
2023-03-11T00:41:01.649Z,1.30
2023-03-11T00:43:30.125Z,1.33
2023-03-11T00:45:58.187Z,1.20
2023-03-11T00:48:26.722Z,1.10
2023-03-11T00:50:57.645Z,1.20
2023-03-11T00:53:27.111Z,1.20
2023-03-11T00:55:55.574Z,1.00
2023-03-11T00:58:27.251Z,1.20
2023-03-11T01:00:55.314Z,1.20
2023-03-11T01:03:25.293Z,1.10
2023-03-11T01:05:53.731Z,1.37
2023-03-11T01:08:21.979Z,1.10
2023-03-11T01:10:51.547Z,1.10
2023-03-11T01:13:19.705Z,1.00
2023-03-11T01:15:47.766Z,1.10
2023-03-11T01:18:16.099Z,1.20
2023-03-11T01:20:45.297Z,0.90
2023-03-11T01:23:14.239Z,1.20
2023-03-11T01:25:42.266Z,1.00
2023-03-11T01:28:11.860Z,1.10
2023-03-11T01:30:41.662Z,1.20
2023-03-11T01:33:15.103Z,1.20
2023-03-11T01:35:43.772Z,1.10
2023-03-11T01:38:13.765Z,1.00
2023-03-11T01:40:43.406Z,1.40
2023-03-11T01:43:41.989Z,1.10
2023-03-11T01:46:15.037Z,0.90
2023-03-11T01:48:48.285Z,1.27
2023-03-11T01:51:19.206Z,1.33
2023-03-11T01:53:49.101Z,1.23
2023-03-11T01:56:17.471Z,1.23
2023-03-11T01:58:50.106Z,1.23
2023-03-11T02:01:18.321Z,1.10
2023-03-11T02:03:46.428Z,1.20
2023-03-11T02:06:18.059Z,1.20
2023-03-11T02:08:46.890Z,1.10
2023-03-11T02:11:19.527Z,1.40
2023-03-11T02:13:53.699Z,1.27
2023-03-11T02:16:22.146Z,1.20
2023-03-11T02:18:50.270Z,1.27
2023-03-11T02:21:26.782Z,1.30
2023-03-11T02:24:05.235Z,1.30
2023-03-11T02:26:42.394Z,1.37
2023-03-11T02:29:13.203Z,1.20
2023-03-11T02:31:43.436Z,1.43
2023-03-11T02:34:17.372Z,1.37
2023-03-11T02:36:47.210Z,1.30
2023-03-11T02:39:18.790Z,1.30
2023-03-11T02:41:51.057Z,1.13
2023-03-11T02:44:20.612Z,1.20
2023-03-11T02:46:49.774Z,1.00
2023-03-11T02:49:18.029Z,1.30
2023-03-11T02:51:46.041Z,1.30
2023-03-11T02:54:14.165Z,1.00
2023-03-11T02:56:42.263Z,1.10
2023-03-11T02:59:12.044Z,1.20
2023-03-11T03:01:41.465Z,1.30
2023-03-11T03:04:09.622Z,1.30
2023-03-11T03:06:37.854Z,1.20
2023-03-11T03:09:06.054Z,1.10
2023-03-11T03:11:36.559Z,1.07
2023-03-11T03:14:04.636Z,1.20
2023-03-11T03:16:32.744Z,1.20
2023-03-11T03:19:04.462Z,1.00
2023-03-11T03:21:34.672Z,1.10
2023-03-11T03:24:03.701Z,1.00
2023-03-11T03:26:32.251Z,1.03
2023-03-11T03:29:00.378Z,1.20
2023-03-11T03:31:28.604Z,1.07
2023-03-11T03:34:01.065Z,0.90
2023-03-11T03:36:30.820Z,0.93
2023-03-11T03:39:01.210Z,1.20
2023-03-11T03:41:29.502Z,1.07
2023-03-11T03:43:59.038Z,1.00
2023-03-11T03:46:27.155Z,1.13
2023-03-11T03:48:55.664Z,1.00
2023-03-11T03:51:23.955Z,1.10
2023-03-11T03:53:53.497Z,1.10
2023-03-11T03:56:21.784Z,1.13
2023-03-11T03:58:49.818Z,0.90
2023-03-11T04:01:18.252Z,1.30
2023-03-11T04:03:46.478Z,1.30
2023-03-11T04:06:18.776Z,1.10
2023-03-11T04:08:47.117Z,1.37
2023-03-11T04:11:16.528Z,1.03
2023-03-11T04:13:46.971Z,1.30
2023-03-11T04:16:18.629Z,1.30
2023-03-11T04:18:49.708Z,1.30
2023-03-11T04:21:18.231Z,1.40
2023-03-11T04:23:46.420Z,1.40
2023-03-11T04:26:15.999Z,2.17
2023-03-11T04:28:46.194Z,2.10
2023-03-11T04:31:14.377Z,2.87
2023-03-11T04:33:42.512Z,2.67
2023-03-11T04:36:15.181Z,2.07
2023-03-11T04:38:43.201Z,10.10
2023-03-11T04:41:17.615Z,2.40
2023-03-11T04:43:47.187Z,4.40
2023-03-11T04:46:15.657Z,6.03
2023-03-11T04:48:43.758Z,3.70
2023-03-11T04:51:11.853Z,5.17
2023-03-11T04:53:39.884Z,2.73
2023-03-11T04:56:08.572Z,1.47
2023-03-11T04:58:37.203Z,1.57
2023-03-11T05:01:06.767Z,1.40
2023-03-11T05:03:35.273Z,1.60
2023-03-11T05:06:03.558Z,1.47
2023-03-11T05:08:31.952Z,1.70
2023-03-11T05:11:00.447Z,1.53
2023-03-11T05:13:28.815Z,1.37
2023-03-11T05:15:56.927Z,1.40
2023-03-11T05:18:26.392Z,1.53
2023-03-11T05:20:54.408Z,1.40
2023-03-11T05:23:22.818Z,1.80
2023-03-11T05:25:50.907Z,1.77
2023-03-11T05:28:21.054Z,1.43
2023-03-11T05:30:50.132Z,1.50
2023-03-11T05:33:18.190Z,1.60
2023-03-11T05:35:48.149Z,1.40
2023-03-11T05:38:16.257Z,1.43
2023-03-11T05:40:44.260Z,1.30
2023-03-11T05:43:12.260Z,1.73
2023-03-11T05:45:40.388Z,1.50
2023-03-11T05:48:09.170Z,1.50
2023-03-11T05:50:41.466Z,1.30
2023-03-11T05:53:10.955Z,1.60
2023-03-11T05:55:39.001Z,1.17
2023-03-11T05:58:07.250Z,1.50
2023-03-11T06:00:36.335Z,1.40
2023-03-11T06:03:04.473Z,1.20
2023-03-11T06:05:35.225Z,1.37
2023-03-11T06:08:03.389Z,1.40
2023-03-11T06:10:32.825Z,1.40
2023-03-11T06:13:01.456Z,1.43
2023-03-11T06:15:29.646Z,1.30
2023-03-11T06:17:59.780Z,1.77
2023-03-11T06:20:28.275Z,2.20
2023-03-11T06:22:57.991Z,2.00
2023-03-11T06:25:28.315Z,1.10
2023-03-11T06:27:57.802Z,1.20
2023-03-11T06:30:26.472Z,1.10
2023-03-11T06:32:55.095Z,1.20
2023-03-11T06:35:23.250Z,1.10
2023-03-11T06:37:54.347Z,1.20
2023-03-11T06:40:22.529Z,2.30
2023-03-11T06:42:50.655Z,1.37
2023-03-11T06:45:23.026Z,1.30
2023-03-11T06:47:51.341Z,1.63
2023-03-11T06:50:23.887Z,0.80
2023-03-11T06:52:52.020Z,0.90
2023-03-11T06:55:21.161Z,1.07
2023-03-11T06:57:49.220Z,1.17
2023-03-11T07:00:21.598Z,1.50
2023-03-11T07:02:51.191Z,1.17
2023-03-11T07:05:19.602Z,1.20
2023-03-11T07:07:48.742Z,1.33
2023-03-11T07:10:16.962Z,1.40
2023-03-11T07:12:45.009Z,1.20
2023-03-11T07:15:14.204Z,1.50
2023-03-11T07:17:43.679Z,1.67
2023-03-11T07:20:13.120Z,1.97
2023-03-11T07:22:41.237Z,2.40
2023-03-11T07:25:11.102Z,2.20
2023-03-11T07:27:39.402Z,1.30
2023-03-11T07:30:08.573Z,1.47
2023-03-11T07:32:36.769Z,1.37
2023-03-11T07:35:07.139Z,1.50
2023-03-11T07:37:35.219Z,8.10
2023-03-11T07:40:04.410Z,2.60
2023-03-11T07:42:37.083Z,1.27
2023-03-11T07:45:05.558Z,2.17
2023-03-11T07:47:33.711Z,1.90
2023-03-11T07:50:01.720Z,1.13
2023-03-11T07:52:36.452Z,1.40
2023-03-11T07:55:04.980Z,1.97
2023-03-11T07:57:33.080Z,2.20
2023-03-11T08:00:03.438Z,1.60
2023-03-11T08:02:31.618Z,2.00
2023-03-11T08:05:00.193Z,1.87
2023-03-11T08:07:28.382Z,1.20
2023-03-11T08:09:57.879Z,1.00
2023-03-11T08:12:28.116Z,1.17
2023-03-11T08:14:56.474Z,1.33
2023-03-11T08:17:24.905Z,1.60
2023-03-11T08:19:53.142Z,4.07
2023-03-11T08:22:21.350Z,1.90
2023-03-11T08:24:52.928Z,1.10
2023-03-11T08:27:22.983Z,1.00
2023-03-11T08:29:51.655Z,1.27
2023-03-11T08:32:19.804Z,1.30
2023-03-11T08:34:47.930Z,0.97
2023-03-11T08:37:19.086Z,1.03
2023-03-11T08:39:47.113Z,1.13
2023-03-11T08:42:15.639Z,1.30
2023-03-11T08:44:46.088Z,1.47
2023-03-11T08:47:15.660Z,1.03
2023-03-11T08:49:43.978Z,1.30
2023-03-11T08:52:14.485Z,1.00
2023-03-11T08:54:44.927Z,1.10
2023-03-11T08:57:13.007Z,0.93
2023-03-11T08:59:41.033Z,1.17
2023-03-11T09:02:14.717Z,1.00
2023-03-11T09:04:42.812Z,1.10
2023-03-11T09:07:13.305Z,1.00
2023-03-11T09:09:41.372Z,1.00
2023-03-11T09:12:13.940Z,1.00
2023-03-11T09:14:42.146Z,0.97
2023-03-11T09:17:12.225Z,1.20
2023-03-11T09:19:46.308Z,1.10
2023-03-11T09:22:14.601Z,1.10
2023-03-11T09:24:42.823Z,6.93
2023-03-11T09:27:11.090Z,6.80
2023-03-11T09:29:39.647Z,3.93
2023-03-11T09:32:14.537Z,1.83
2023-03-11T09:34:44.120Z,3.63
2023-03-11T09:37:12.111Z,1.20
2023-03-11T09:39:40.078Z,1.10
2023-03-11T09:44:55.811Z,1.07
2023-03-11T09:47:38.412Z,1.10
2023-03-11T09:50:23.643Z,1.20
2023-03-11T09:52:59.960Z,1.27
2023-03-11T09:55:43.697Z,1.10
2023-03-11T09:58:20.656Z,1.30
2023-03-11T10:00:54.414Z,1.77
2023-03-11T10:03:32.949Z,1.40
2023-03-11T10:06:15.449Z,1.70
2023-03-11T10:08:47.556Z,1.50
2023-03-11T10:11:29.202Z,1.40
2023-03-11T10:14:09.907Z,1.50
2023-03-11T10:16:48.597Z,1.77
2023-03-11T10:19:26.525Z,1.40
2023-03-11T10:22:03.832Z,1.60
2023-03-11T10:24:46.925Z,1.97
2023-03-11T10:27:18.874Z,1.63
2023-03-11T10:29:56.453Z,1.30
2023-03-11T10:32:36.087Z,1.30
2023-03-11T10:35:14.092Z,1.47
2023-03-11T10:37:49.631Z,1.50
2023-03-11T10:40:24.454Z,1.57
2023-03-11T10:42:55.144Z,2.50
2023-03-11T10:45:24.535Z,1.70
2023-03-11T10:47:54.304Z,2.10
2023-03-11T10:50:22.496Z,1.60
2023-03-11T10:53:09.383Z,1.57
2023-03-11T10:55:50.307Z,1.80
2023-03-11T10:58:22.882Z,1.57
2023-03-11T11:01:06.098Z,1.70
2023-03-11T11:03:36.332Z,1.60
2023-03-11T11:06:24.157Z,2.03
2023-03-11T11:09:16.389Z,1.60
2023-03-11T11:12:03.882Z,1.40
2023-03-11T11:14:54.938Z,2.00
2023-03-11T11:17:28.076Z,1.43
2023-03-11T11:19:59.854Z,1.43
2023-03-11T11:22:32.231Z,1.50
2023-03-11T11:25:00.525Z,1.53
2023-03-11T11:27:29.682Z,1.80
2023-03-11T11:30:17.553Z,1.60
2023-03-11T11:32:45.886Z,2.07
2023-03-11T11:35:17.271Z,1.30
2023-03-11T11:37:48.790Z,2.00
2023-03-11T11:40:26.658Z,1.60
2023-03-11T11:42:58.040Z,1.70
2023-03-11T11:45:33.873Z,2.73
2023-03-11T11:48:06.555Z,1.67
2023-03-11T11:50:38.754Z,1.30
2023-03-11T11:53:17.312Z,1.23
2023-03-11T11:55:49.342Z,1.20
2023-03-11T11:58:21.369Z,1.50
2023-03-11T12:01:02.292Z,1.20
2023-03-11T12:03:56.240Z,1.70
2023-03-11T12:06:32.802Z,1.20
2023-03-11T12:09:15.827Z,1.80
2023-03-11T12:11:53.536Z,1.30
2023-03-11T12:14:26.623Z,1.40
2023-03-11T12:16:58.838Z,1.50
2023-03-11T12:19:48.898Z,1.90
2023-03-11T12:22:42.197Z,1.60
2023-03-11T12:25:27.124Z,1.50
2023-03-11T12:28:00.969Z,1.50
2023-03-11T12:30:33.787Z,1.70
2023-03-11T12:33:08.778Z,1.53
2023-03-11T12:35:37.555Z,1.70
2023-03-11T12:38:18.502Z,1.50
2023-03-11T12:40:58.247Z,1.43
2023-03-11T12:43:30.861Z,1.50
2023-03-11T12:46:00.384Z,1.70
2023-03-11T12:48:37.767Z,1.57
2023-03-11T12:51:07.563Z,1.40
2023-03-11T12:53:49.920Z,1.60
2023-03-11T12:56:30.911Z,1.40
2023-03-11T12:59:22.725Z,1.43
2023-03-11T13:02:01.551Z,1.60
2023-03-11T13:04:41.501Z,1.37
2023-03-11T13:07:47.564Z,1.80
2023-03-11T13:10:35.608Z,1.37
2023-03-11T13:13:23.230Z,1.50
2023-03-11T13:15:52.557Z,1.50
2023-03-11T13:18:24.884Z,1.50
2023-03-11T13:20:57.119Z,1.50
2023-03-11T13:23:35.393Z,1.37
2023-03-11T13:26:30.659Z,1.50
2023-03-11T13:29:34.967Z,1.63
2023-03-11T13:32:26.180Z,1.53
2023-03-11T13:35:03.338Z,1.70
2023-03-11T13:37:49.036Z,1.20
2023-03-11T13:40:30.087Z,1.30
2023-03-11T13:43:04.504Z,1.40
2023-03-11T13:45:35.939Z,1.10
2023-03-11T13:48:08.582Z,1.60
2023-03-11T13:50:40.001Z,1.60
2023-03-11T13:53:11.350Z,2.10
2023-03-11T13:55:43.116Z,2.47
2023-03-11T13:58:25.700Z,1.70
2023-03-11T14:00:55.536Z,1.50
2023-03-11T14:03:25.797Z,1.23
2023-03-11T14:05:59.977Z,1.47
2023-03-11T14:08:30.051Z,1.30
2023-03-11T14:10:59.957Z,1.40
2023-03-11T14:13:30.444Z,1.57
2023-03-11T14:16:07.313Z,1.20
2023-03-11T14:18:39.459Z,1.40
2023-03-11T14:21:13.597Z,1.10
2023-03-11T14:23:45.946Z,1.20
2023-03-11T14:26:17.429Z,1.23
2023-03-11T14:28:49.876Z,1.87
2023-03-11T14:31:26.566Z,1.40
2023-03-11T14:33:58.631Z,1.30
2023-03-11T14:36:26.700Z,1.70
2023-03-11T14:38:57.123Z,1.60
2023-03-11T14:41:25.684Z,1.63
2023-03-11T14:43:55.997Z,1.53
2023-03-11T14:46:31.991Z,1.47
2023-03-11T14:49:11.994Z,1.47
2023-03-11T14:51:40.672Z,1.40
2023-03-11T14:54:17.267Z,1.70
2023-03-11T14:56:51.211Z,1.30
2023-03-11T14:59:27.909Z,1.50
2023-03-11T15:01:59.320Z,1.63
2023-03-11T15:04:32.805Z,3.33
2023-03-11T15:07:02.235Z,5.77
2023-03-11T15:09:31.902Z,20.20
2023-03-11T15:12:02.255Z,2.97
2023-03-11T15:14:33.534Z,11.43
2023-03-11T15:17:33.093Z,2.70
2023-03-11T15:20:04.977Z,1.90
2023-03-11T15:22:37.463Z,1.50
2023-03-11T15:25:17.042Z,1.80
2023-03-11T15:27:45.506Z,1.50
2023-03-11T15:30:25.513Z,1.50
2023-03-11T15:32:54.000Z,1.53
2023-03-11T15:35:24.692Z,1.50
2023-03-11T15:38:12.670Z,1.43
2023-03-11T15:40:45.653Z,1.97
2023-03-11T15:43:28.872Z,1.83
2023-03-11T15:46:02.614Z,2.00
2023-03-11T15:48:31.440Z,1.50
2023-03-11T15:51:01.153Z,1.67
2023-03-11T15:53:31.296Z,2.00
2023-03-11T15:56:08.713Z,2.60
2023-03-11T15:58:38.619Z,1.70
2023-03-11T16:01:09.975Z,2.63
2023-03-11T16:03:40.409Z,1.97
2023-03-11T16:06:08.768Z,2.03
2023-03-11T16:08:36.859Z,2.23
2023-03-11T16:11:05.214Z,2.00
2023-03-11T16:13:36.811Z,2.40
2023-03-11T16:16:05.282Z,2.10
2023-03-11T16:18:35.816Z,1.93
2023-03-11T16:21:10.015Z,1.67
2023-03-11T16:23:50.726Z,2.13
2023-03-11T16:26:19.778Z,2.10
2023-03-11T16:28:51.238Z,1.50
2023-03-11T16:31:19.470Z,1.93
2023-03-11T16:33:49.294Z,1.67
2023-03-11T16:36:17.396Z,1.93
2023-03-11T16:38:47.426Z,1.70
2023-03-11T16:41:15.773Z,1.80
2023-03-11T16:43:43.820Z,2.00
2023-03-11T16:46:12.534Z,1.90
2023-03-11T16:48:40.720Z,2.03
2023-03-11T16:51:10.330Z,2.00
2023-03-11T16:53:38.394Z,2.20
2023-03-11T16:56:10.039Z,2.20
2023-03-11T16:58:39.396Z,1.90
2023-03-11T17:01:09.434Z,2.33
2023-03-11T17:03:42.827Z,2.10
2023-03-11T17:06:12.591Z,2.10
2023-03-11T17:08:40.892Z,2.20
2023-03-11T17:11:19.793Z,2.03
2023-03-11T17:13:48.782Z,2.33
2023-03-11T17:16:17.004Z,2.37
2023-03-11T17:18:45.623Z,2.17
2023-03-11T17:21:19.290Z,2.40
2023-03-11T17:23:47.571Z,2.30
2023-03-11T17:26:17.789Z,2.40
2023-03-11T17:28:49.575Z,2.67
2023-03-11T17:31:18.249Z,2.50
2023-03-11T17:33:47.281Z,2.50
2023-03-11T17:36:17.900Z,2.60
2023-03-11T17:38:46.700Z,2.60
2023-03-11T17:41:17.592Z,2.60
2023-03-11T17:43:46.374Z,2.80
2023-03-11T17:46:16.268Z,2.63
2023-03-11T17:48:49.697Z,2.50
2023-03-11T17:51:22.033Z,2.20
2023-03-11T17:53:51.704Z,3.20
2023-03-11T17:56:20.356Z,4.03
2023-03-11T17:58:51.803Z,17.40
2023-03-11T18:01:21.826Z,39.03
2023-03-11T18:03:51.710Z,37.27
2023-03-11T18:06:21.776Z,24.40
2023-03-11T18:08:50.317Z,11.77
2023-03-11T18:11:21.732Z,3.70
2023-03-11T18:13:50.610Z,3.53
2023-03-11T18:16:20.423Z,3.60
2023-03-11T18:18:49.389Z,3.70
2023-03-11T18:21:20.954Z,4.07
2023-03-11T18:23:49.739Z,3.23
2023-03-11T18:26:25.251Z,2.80
2023-03-11T18:28:54.340Z,2.60
2023-03-11T18:31:26.154Z,2.70
2023-03-11T18:34:00.184Z,2.77
2023-03-11T18:36:31.371Z,2.30
2023-03-11T18:39:00.825Z,2.40
2023-03-11T18:41:32.012Z,2.50
2023-03-11T18:44:00.546Z,2.70
2023-03-11T18:46:31.668Z,2.80
2023-03-11T18:49:01.385Z,2.80
2023-03-11T18:51:32.662Z,2.70
2023-03-11T18:54:02.011Z,2.80
2023-03-11T18:56:33.461Z,2.87
2023-03-11T18:59:02.131Z,3.17
2023-03-11T19:01:30.769Z,2.90
2023-03-11T19:04:00.597Z,3.00
2023-03-11T19:06:31.020Z,2.70
2023-03-11T19:08:59.609Z,2.73
2023-03-11T19:11:27.796Z,2.63
2023-03-11T19:13:56.462Z,2.93
2023-03-11T19:16:27.666Z,3.00
2023-03-11T19:18:56.320Z,2.80
2023-03-11T19:21:26.329Z,3.40
2023-03-11T19:23:58.317Z,3.60
2023-03-11T19:26:43.157Z,3.40
2023-03-11T19:29:13.597Z,3.03
2023-03-11T19:31:43.745Z,2.93
2023-03-11T19:34:14.900Z,3.13
2023-03-11T19:36:43.357Z,3.20
2023-03-11T19:39:12.756Z,2.73
2023-03-11T19:41:40.799Z,3.00
2023-03-11T19:44:10.064Z,3.30
2023-03-11T19:46:38.237Z,3.20
2023-03-11T19:49:06.350Z,3.13
2023-03-11T19:51:48.485Z,3.83
2023-03-11T19:54:19.809Z,3.70
2023-03-11T19:56:51.861Z,3.27
2023-03-11T19:59:20.074Z,3.20
2023-03-11T20:01:48.256Z,3.23
2023-03-11T20:04:16.618Z,3.20
2023-03-11T20:06:45.918Z,3.47
2023-03-11T20:09:16.055Z,3.57
2023-03-11T20:11:46.192Z,3.53
2023-03-11T20:14:14.939Z,4.80
2023-03-11T20:16:43.375Z,4.90
2023-03-11T20:19:11.857Z,56.90
2023-03-11T20:21:42.472Z,34.93
2023-03-11T20:24:13.109Z,44.73
2023-03-11T20:26:41.384Z,41.63
2023-03-11T20:29:17.464Z,44.10
2023-03-11T20:31:45.612Z,45.27
2023-03-11T20:34:14.195Z,41.37
2023-03-11T20:36:42.382Z,36.93
2023-03-11T20:39:10.826Z,36.73
2023-03-11T20:41:41.539Z,31.40
2023-03-11T20:44:16.748Z,26.50
2023-03-11T20:46:45.445Z,12.90
2023-03-11T20:49:13.642Z,8.63
2023-03-11T20:51:44.146Z,8.53
2023-03-11T20:54:12.545Z,7.60
2023-03-11T20:56:41.143Z,8.40
2023-03-11T20:59:13.069Z,7.33
2023-03-11T21:01:41.421Z,6.60
2023-03-11T21:04:10.218Z,5.93
2023-03-11T21:06:40.845Z,5.93
2023-03-11T21:09:13.529Z,7.03
2023-03-11T21:11:43.581Z,6.80
2023-03-11T21:14:17.155Z,6.77
2023-03-11T21:16:49.125Z,7.20
2023-03-11T21:19:17.458Z,6.83
2023-03-11T21:21:45.518Z,6.03
2023-03-11T21:24:13.966Z,5.83
2023-03-11T21:26:44.379Z,6.40
2023-03-11T21:29:15.277Z,5.70
2023-03-11T21:31:43.569Z,5.67
2023-03-11T21:34:12.378Z,6.43
2023-03-11T21:36:45.374Z,5.80
2023-03-11T21:39:15.109Z,7.30
2023-03-11T21:41:43.294Z,5.73
2023-03-11T21:44:11.386Z,5.87
2023-03-11T21:46:43.005Z,6.10
2023-03-11T21:49:13.831Z,8.60
2023-03-11T21:51:45.767Z,12.23
2023-03-11T21:54:15.372Z,24.27
2023-03-11T21:56:43.696Z,14.93
2023-03-11T21:59:14.060Z,10.93
2023-03-11T22:01:45.990Z,10.50
2023-03-11T22:04:16.811Z,11.73
2023-03-11T22:06:51.421Z,8.90
2023-03-11T22:09:19.654Z,7.00
2023-03-11T22:11:47.987Z,5.90
2023-03-11T22:14:16.165Z,6.47
2023-03-11T22:16:48.598Z,6.50
2023-03-11T22:19:17.266Z,6.13
2023-03-11T22:21:45.544Z,5.47
2023-03-11T22:24:14.397Z,5.50
2023-03-11T22:26:45.178Z,5.47
2023-03-11T22:29:13.825Z,5.93
2023-03-11T22:31:43.443Z,5.67
2023-03-11T22:34:14.857Z,5.30
2023-03-11T22:36:43.045Z,6.23
2023-03-11T22:39:11.168Z,6.70
2023-03-11T22:41:39.428Z,6.17
2023-03-11T22:44:10.039Z,6.50
2023-03-11T22:46:39.949Z,6.13
2023-03-11T22:49:09.030Z,5.90
2023-03-11T22:51:38.470Z,6.53
2023-03-11T22:54:06.654Z,6.17
2023-03-11T22:56:37.244Z,6.10
2023-03-11T22:59:09.464Z,6.20
2023-03-11T23:01:37.679Z,6.17
2023-03-11T23:04:06.202Z,5.90
2023-03-11T23:06:34.462Z,6.10
2023-03-11T23:09:07.014Z,5.90
2023-03-11T23:11:36.045Z,6.57
2023-03-11T23:14:04.079Z,5.67
2023-03-11T23:16:32.805Z,5.07
2023-03-11T23:19:01.297Z,5.53
2023-03-11T23:21:33.927Z,5.70
2023-03-11T23:24:05.571Z,5.80
2023-03-11T23:26:36.552Z,5.93
2023-03-11T23:29:06.956Z,5.77
2023-03-11T23:31:36.365Z,5.70
2023-03-11T23:34:06.953Z,6.00
2023-03-11T23:36:35.891Z,5.70
2023-03-11T23:39:04.592Z,6.00
2023-03-11T23:41:34.186Z,5.87
2023-03-11T23:44:05.456Z,6.33
2023-03-11T23:46:36.786Z,6.53
2023-03-11T23:49:04.997Z,6.40
2023-03-11T23:51:33.125Z,6.17
2023-03-11T23:54:01.294Z,6.30
2023-03-11T23:56:29.384Z,5.97
2023-03-11T23:59:00.917Z,6.03
